createdAt,value
2017-06-03T00:00:07.817Z,24.8
2017-06-03T00:02:07.543Z,24.7
2017-06-03T00:04:05.146Z,24.7
2017-06-03T00:06:07.526Z,24.7
2017-06-03T00:08:07.806Z,24.7
2017-06-03T00:10:05.834Z,24.7
2017-06-03T00:12:04.993Z,24.7
2017-06-03T00:14:07.804Z,24.7
2017-06-03T00:16:05.532Z,24.7
2017-06-03T00:18:05.498Z,24.6
2017-06-03T00:20:05.215Z,24.7
2017-06-03T00:22:10.395Z,24.6
2017-06-03T00:24:05.089Z,24.6
2017-06-03T00:26:04.783Z,24.6
2017-06-03T00:28:05.574Z,24.6
2017-06-03T00:30:07.777Z,24.5
2017-06-03T00:32:05.510Z,24.5
2017-06-03T00:34:05.384Z,24.5
2017-06-03T00:36:05.596Z,24.5
2017-06-03T00:38:13.085Z,24.5
2017-06-03T00:40:15.053Z,24.5
2017-06-03T00:42:04.827Z,24.5
2017-06-03T00:44:05.502Z,24.5
2017-06-03T00:46:07.886Z,24.5
2017-06-03T00:48:05.572Z,24.5
2017-06-03T00:50:05.328Z,24.5
2017-06-03T00:52:05.056Z,24.5
2017-06-03T00:54:04.823Z,24.5
2017-06-03T00:56:08.077Z,24.5
2017-06-03T00:58:04.927Z,24.5
2017-06-03T01:00:04.619Z,24.4
2017-06-03T01:02:05.304Z,24.4
2017-06-03T01:04:05.106Z,24.4
2017-06-03T01:06:04.817Z,24.4
2017-06-03T01:08:05.522Z,24.4
2017-06-03T01:10:05.559Z,24.3
2017-06-03T01:12:05.223Z,24.3
2017-06-03T01:14:04.954Z,24.3
2017-06-03T01:16:04.673Z,24.4
2017-06-03T01:18:05.584Z,24.4
2017-06-03T01:20:05.367Z,24.3
2017-06-03T01:22:05.451Z,24.3
2017-06-03T01:24:05.384Z,24.3
2017-06-03T01:26:05.200Z,24.3
2017-06-03T01:28:04.915Z,24.3
2017-06-03T01:30:04.634Z,24.3
2017-06-03T01:32:12.575Z,24.3
2017-06-03T01:34:07.939Z,24.3
2017-06-03T01:36:05.232Z,24.3
2017-06-03T01:38:05.021Z,24.3
2017-06-03T01:40:04.949Z,24.3
2017-06-03T01:42:04.771Z,24.3
2017-06-03T01:44:05.480Z,24.3
2017-06-03T01:46:05.308Z,24.3
2017-06-03T01:48:05.086Z,24.3
2017-06-03T01:50:04.773Z,24.3
2017-06-03T01:52:05.799Z,24.3
2017-06-03T01:54:05.537Z,24.2
2017-06-03T01:56:07.769Z,24.2
2017-06-03T01:58:05.717Z,24.3
2017-06-03T02:00:10.416Z,24.2
2017-06-03T02:02:05.070Z,24.2
2017-06-03T02:04:05.559Z,24.2
2017-06-03T02:06:07.835Z,24.2
2017-06-03T02:08:05.511Z,24.2
2017-06-03T02:10:07.735Z,24.2
2017-06-03T02:12:04.917Z,24.2
2017-06-03T02:14:08.270Z,24.2
2017-06-03T02:16:07.519Z,24.2
2017-06-03T02:18:08.010Z,24.2
2017-06-03T02:20:04.712Z,24.2
2017-06-03T02:22:10.469Z,24.2
2017-06-03T02:24:05.264Z,24.2
2017-06-03T02:26:04.944Z,24.2
2017-06-03T02:28:04.817Z,24.1
2017-06-03T02:30:10.871Z,24.1
2017-06-03T02:32:08.111Z,24.1
2017-06-03T02:34:07.584Z,24.1
2017-06-03T02:36:05.253Z,24.1
2017-06-03T02:38:05.466Z,24.1
2017-06-03T02:40:07.699Z,24.1
2017-06-03T02:42:05.431Z,24.1
2017-06-03T02:44:04.638Z,24.1
2017-06-03T02:46:05.703Z,24.1
2017-06-03T02:48:05.037Z,24.1
2017-06-03T02:50:04.771Z,24.1
2017-06-03T02:52:05.625Z,24.1
2017-06-03T02:54:04.844Z,24.1
2017-06-03T02:56:05.069Z,24.1
2017-06-03T02:58:07.492Z,24.1
2017-06-03T03:00:05.239Z,24
2017-06-03T03:02:05.629Z,24.1
2017-06-03T03:04:05.709Z,24.1
2017-06-03T03:06:05.396Z,24.1
2017-06-03T03:08:05.067Z,24
2017-06-03T03:10:05.099Z,24
2017-06-03T03:12:04.769Z,24
2017-06-03T03:14:05.498Z,24
2017-06-03T03:16:10.471Z,24
2017-06-03T03:18:05.523Z,24
2017-06-03T03:20:07.771Z,24
2017-06-03T03:22:05.178Z,24
2017-06-03T03:24:04.907Z,24
2017-06-03T03:26:05.592Z,24
2017-06-03T03:28:04.809Z,24
2017-06-03T03:30:05.505Z,24
2017-06-03T03:32:05.234Z,24
2017-06-03T03:34:05.094Z,24
2017-06-03T03:36:04.800Z,24
2017-06-03T03:38:05.458Z,24
2017-06-03T03:40:10.584Z,24
2017-06-03T03:42:04.756Z,24
2017-06-03T03:44:07.539Z,24
2017-06-03T03:46:07.742Z,24
2017-06-03T03:48:10.462Z,24
2017-06-03T03:50:04.856Z,23.9
2017-06-03T03:52:07.627Z,23.9
2017-06-03T03:54:05.284Z,23.9
2017-06-03T03:56:04.967Z,23.9
2017-06-03T03:58:05.320Z,23.9
2017-06-03T04:00:05.007Z,23.9
2017-06-03T04:02:07.875Z,23.8
2017-06-03T04:04:08.294Z,23.8
2017-06-03T04:06:05.035Z,23.8
2017-06-03T04:08:04.708Z,23.8
2017-06-03T04:10:05.468Z,23.8
2017-06-03T04:12:05.241Z,23.8
2017-06-03T04:14:05.476Z,23.8
2017-06-03T04:16:05.355Z,23.8
2017-06-03T04:18:04.807Z,23.7
2017-06-03T04:20:05.510Z,23.7
2017-06-03T04:22:04.800Z,23.7
2017-06-03T04:24:05.561Z,23.8
2017-06-03T04:26:07.387Z,23.7
2017-06-03T04:28:05.702Z,23.7
2017-06-03T04:30:04.929Z,23.7
2017-06-03T04:32:05.600Z,23.7
2017-06-03T04:34:05.453Z,23.7
2017-06-03T04:36:10.741Z,23.7
2017-06-03T04:38:05.274Z,23.7
2017-06-03T04:40:08.196Z,23.7
2017-06-03T04:42:04.912Z,23.7
2017-06-03T04:44:05.173Z,23.7
2017-06-03T04:46:12.448Z,23.7
2017-06-03T04:48:05.138Z,23.7
2017-06-03T04:50:04.861Z,23.7
2017-06-03T04:52:05.739Z,23.7
2017-06-03T04:54:05.589Z,23.7
2017-06-03T04:56:05.281Z,23.7
2017-06-03T04:58:05.581Z,23.7
2017-06-03T05:00:07.790Z,23.7
2017-06-03T05:02:08.055Z,23.7
2017-06-03T05:04:04.773Z,23.7
2017-06-03T05:06:05.007Z,23.7
2017-06-03T05:08:04.693Z,23.7
2017-06-03T05:10:05.593Z,23.7
2017-06-03T05:12:05.279Z,23.7
2017-06-03T05:14:05.005Z,23.7
2017-06-03T05:16:04.836Z,23.8
2017-06-03T05:18:04.763Z,23.8
2017-06-03T05:20:07.976Z,23.8
2017-06-03T05:22:04.708Z,23.8
2017-06-03T05:24:05.402Z,23.8
2017-06-03T05:26:05.076Z,23.8
2017-06-03T05:28:04.908Z,23.8
2017-06-03T05:30:05.598Z,23.9
2017-06-03T05:32:05.370Z,23.9
2017-06-03T05:34:05.283Z,23.9
2017-06-03T05:36:04.955Z,23.9
2017-06-03T05:38:07.146Z,24
2017-06-03T05:40:05.036Z,24
2017-06-03T05:42:05.255Z,24
2017-06-03T05:44:05.013Z,24
2017-06-03T05:46:04.859Z,24
2017-06-03T05:48:05.603Z,24
2017-06-03T05:50:05.342Z,24
2017-06-03T05:52:05.094Z,24
2017-06-03T05:54:04.815Z,24
2017-06-03T05:56:05.600Z,24
2017-06-03T05:58:05.428Z,24
2017-06-03T06:00:07.635Z,24
2017-06-03T06:02:05.349Z,24
2017-06-03T06:04:05.251Z,24
2017-06-03T06:06:04.961Z,24
2017-06-03T06:08:04.676Z,24
2017-06-03T06:10:10.667Z,24
2017-06-03T06:12:10.010Z,24.1
2017-06-03T06:14:04.832Z,24.1
2017-06-03T06:16:05.946Z,24.1
2017-06-03T06:18:05.457Z,24.2
2017-06-03T06:20:05.187Z,24.2
2017-06-03T06:22:07.643Z,24.2
2017-06-03T06:24:09.828Z,24.2
2017-06-03T06:26:04.726Z,24.2
2017-06-03T06:28:08.005Z,24.2
2017-06-03T06:30:07.553Z,24.2
2017-06-03T06:32:05.268Z,24.2
2017-06-03T06:34:05.587Z,24.2
2017-06-03T06:36:07.880Z,24.2
2017-06-03T06:38:13.178Z,24.2
2017-06-03T06:40:04.949Z,24.2
2017-06-03T06:42:07.222Z,24.3
2017-06-03T06:44:07.468Z,24.3
2017-06-03T06:46:05.050Z,24.3
2017-06-03T06:48:05.308Z,24.3
2017-06-03T06:50:07.655Z,24.4
2017-06-03T06:52:05.489Z,24.4
2017-06-03T06:54:07.232Z,24.4
2017-06-03T06:56:10.204Z,24.5
2017-06-03T06:58:05.016Z,24.5
2017-06-03T07:00:04.765Z,24.5
2017-06-03T07:02:05.951Z,24.6
2017-06-03T07:04:04.814Z,24.6
2017-06-03T07:06:08.115Z,24.7
2017-06-03T07:08:04.881Z,24.7
2017-06-03T07:10:05.704Z,24.8
2017-06-03T07:12:05.450Z,24.9
2017-06-03T07:14:04.633Z,24.9
2017-06-03T07:16:10.523Z,24.9
2017-06-03T07:18:10.599Z,24.9
2017-06-03T07:20:05.265Z,24.9
2017-06-03T07:22:05.371Z,24.9
2017-06-03T07:24:06.035Z,24.9
2017-06-03T07:26:05.480Z,24.9
2017-06-03T07:28:04.830Z,24.9
2017-06-03T07:30:05.521Z,24.9
2017-06-03T07:32:05.213Z,24.9
2017-06-03T07:34:07.858Z,24.9
2017-06-03T07:36:05.648Z,25
2017-06-03T07:38:05.377Z,25
2017-06-03T07:40:05.391Z,25
2017-06-03T07:42:07.621Z,25
2017-06-03T07:44:07.897Z,25
2017-06-03T07:46:04.670Z,25
2017-06-03T07:48:05.390Z,25.1
2017-06-03T07:50:04.611Z,25
2017-06-03T07:52:05.666Z,25.1
2017-06-03T07:54:10.456Z,25.1
2017-06-03T07:56:05.163Z,25.1
2017-06-03T07:58:05.147Z,25.1
2017-06-03T08:00:07.974Z,25.1
2017-06-03T08:02:04.632Z,25.1
2017-06-03T08:04:07.441Z,25.1
2017-06-03T08:06:05.170Z,25.1
2017-06-03T08:08:10.099Z,25.1
2017-06-03T08:10:05.413Z,25.2
2017-06-03T08:12:05.201Z,25.2
2017-06-03T08:14:07.446Z,25.2
2017-06-03T08:16:07.367Z,25.2
2017-06-03T08:18:05.243Z,25.2
2017-06-03T08:20:07.502Z,25.1
2017-06-03T08:22:05.180Z,25.1
2017-06-03T08:24:04.945Z,25.1
2017-06-03T08:26:04.735Z,25.2
2017-06-03T08:28:05.593Z,25.2
2017-06-03T08:30:05.290Z,25.2
2017-06-03T08:32:05.273Z,25.2
2017-06-03T08:34:06.173Z,25.1
2017-06-03T08:36:04.983Z,25.1
2017-06-03T08:38:04.822Z,25.1
2017-06-03T08:40:05.601Z,25.1
2017-06-03T08:42:06.768Z,25.1
2017-06-03T08:44:05.391Z,25.1
2017-06-03T08:46:05.095Z,25.1
2017-06-03T08:48:04.982Z,25.1
2017-06-03T08:50:05.454Z,25.1
2017-06-03T08:52:05.169Z,25.1
2017-06-03T08:54:05.250Z,25.1
2017-06-03T08:56:05.401Z,25.1
2017-06-03T08:58:05.670Z,25.1
2017-06-03T09:00:04.617Z,25.1
2017-06-03T09:02:04.952Z,25.1
2017-06-03T09:04:07.237Z,25.1
2017-06-03T09:06:05.056Z,25.1
2017-06-03T09:08:04.742Z,25.1
2017-06-03T09:10:05.885Z,25.1
2017-06-03T09:12:08.100Z,25.1
2017-06-03T09:14:09.831Z,25.1
2017-06-03T09:16:05.568Z,25.1
2017-06-03T09:18:05.029Z,25.1
2017-06-03T09:20:12.266Z,25.1
2017-06-03T09:22:05.513Z,25.1
2017-06-03T09:24:05.213Z,25.2
2017-06-03T09:26:04.786Z,25.2
2017-06-03T09:28:08.242Z,25.1
2017-06-03T09:30:05.493Z,25.1
2017-06-03T09:32:07.980Z,25.2
2017-06-03T09:34:07.861Z,25.2
2017-06-03T09:36:09.705Z,25.2
2017-06-03T09:38:05.391Z,25.2
2017-06-03T09:40:13.359Z,25.2
2017-06-03T09:42:05.147Z,25.2
2017-06-03T09:44:07.921Z,25.2
2017-06-03T09:46:04.921Z,25.2
2017-06-03T09:48:05.599Z,25.2
2017-06-03T09:50:05.266Z,25.2
2017-06-03T09:52:05.696Z,25.2
2017-06-03T09:54:10.448Z,25.2
2017-06-03T09:56:05.200Z,25.2
2017-06-03T09:58:07.979Z,25.2
2017-06-03T10:00:07.248Z,25.3
2017-06-03T10:02:05.505Z,25.2
2017-06-03T10:04:05.342Z,25.3
2017-06-03T10:06:05.077Z,25.3
2017-06-03T10:08:05.249Z,25.3
2017-06-03T10:10:04.903Z,25.3
2017-06-03T10:12:07.425Z,25.3
2017-06-03T10:14:04.807Z,25.3
2017-06-03T10:16:05.033Z,25.3
2017-06-03T10:18:07.246Z,25.3
2017-06-03T10:20:04.995Z,25.3
2017-06-03T10:22:04.777Z,25.3
2017-06-03T10:24:05.538Z,25.3
2017-06-03T10:26:06.456Z,25.3
2017-06-03T10:28:05.303Z,25.3
2017-06-03T10:30:05.015Z,25.3
2017-06-03T10:32:07.197Z,25.3
2017-06-03T10:34:05.222Z,25.3
2017-06-03T10:36:04.941Z,25.3
2017-06-03T10:38:07.760Z,25.4
2017-06-03T10:40:05.710Z,25.4
2017-06-03T10:42:05.388Z,25.4
2017-06-03T10:44:07.230Z,25.5
2017-06-03T10:46:05.120Z,25.5
2017-06-03T10:48:04.778Z,25.5
2017-06-03T10:50:05.468Z,25.6
2017-06-03T10:52:05.222Z,25.6
2017-06-03T10:54:04.894Z,25.6
2017-06-03T10:56:08.153Z,25.6
2017-06-03T10:58:05.459Z,25.6
2017-06-03T11:00:04.664Z,25.7
2017-06-03T11:02:10.453Z,25.7
2017-06-03T11:04:05.216Z,25.7
2017-06-03T11:06:07.469Z,25.7
2017-06-03T11:08:05.189Z,25.7
2017-06-03T11:10:04.980Z,25.7
2017-06-03T11:12:04.660Z,25.7
2017-06-03T11:14:04.987Z,25.7
2017-06-03T11:16:04.894Z,25.8
2017-06-03T11:18:04.844Z,25.7
2017-06-03T11:20:08.031Z,25.8
2017-06-03T11:22:07.400Z,25.8
2017-06-03T11:24:05.157Z,25.8
2017-06-03T11:26:04.886Z,25.8
2017-06-03T11:28:04.910Z,25.8
2017-06-03T11:30:08.145Z,25.8
2017-06-03T11:32:04.825Z,25.8
2017-06-03T11:34:08.125Z,25.9
2017-06-03T11:36:09.873Z,25.8
2017-06-03T11:38:04.682Z,25.9
2017-06-03T11:40:05.475Z,25.9
2017-06-03T11:42:04.727Z,25.9
2017-06-03T11:44:10.454Z,25.9
2017-06-03T11:46:05.437Z,25.8
2017-06-03T11:48:05.235Z,25.9
2017-06-03T11:50:05.312Z,25.9
2017-06-03T11:52:04.988Z,25.9
2017-06-03T11:54:07.215Z,25.9
2017-06-03T11:56:04.897Z,25.9
2017-06-03T11:58:05.700Z,25.9
2017-06-03T12:00:05.416Z,25.9
2017-06-03T12:02:05.192Z,25.9
2017-06-03T12:04:04.999Z,26
2017-06-03T12:06:05.545Z,26
2017-06-03T12:08:07.295Z,26
2017-06-03T12:10:07.636Z,25.9
2017-06-03T12:12:05.341Z,25.9
2017-06-03T12:14:05.020Z,25.9
2017-06-03T12:16:07.439Z,26
2017-06-03T12:18:05.316Z,25.9
2017-06-03T12:20:05.553Z,26
2017-06-03T12:22:05.592Z,26
2017-06-03T12:24:05.277Z,26
2017-06-03T12:26:04.945Z,26
2017-06-03T12:28:12.521Z,26
2017-06-03T12:30:05.217Z,26
2017-06-03T12:32:04.986Z,26
2017-06-03T12:34:05.339Z,26
2017-06-03T12:36:05.042Z,26
2017-06-03T12:38:07.277Z,25.9
2017-06-03T12:40:05.090Z,26
2017-06-03T12:42:04.772Z,26
2017-06-03T12:44:05.184Z,26
2017-06-03T12:46:04.946Z,26
2017-06-03T12:48:04.648Z,26
2017-06-03T12:50:10.435Z,26
2017-06-03T12:52:05.295Z,26
2017-06-03T12:54:04.985Z,26
2017-06-03T12:56:05.210Z,26.1
2017-06-03T12:58:05.258Z,26.1
2017-06-03T13:00:05.503Z,26.1
2017-06-03T13:02:05.193Z,26.1
2017-06-03T13:04:04.905Z,26.1
2017-06-03T13:06:04.650Z,26.1
2017-06-03T13:08:04.875Z,26.1
2017-06-03T13:10:05.816Z,26.2
2017-06-03T13:12:10.094Z,26.2
2017-06-03T13:14:04.948Z,26.2
2017-06-03T13:16:05.336Z,26.2
2017-06-03T13:18:05.288Z,26.2
2017-06-03T13:20:04.987Z,26.2
2017-06-03T13:22:05.592Z,26.2
2017-06-03T13:24:10.425Z,26.2
2017-06-03T13:26:05.004Z,26.2
2017-06-03T13:28:04.738Z,26.2
2017-06-03T13:30:05.444Z,26.2
2017-06-03T13:32:10.236Z,26.2
2017-06-03T13:34:05.013Z,26.3
2017-06-03T13:36:04.698Z,26.3
2017-06-03T13:38:05.396Z,26.3
2017-06-03T13:40:10.337Z,26.3
2017-06-03T13:42:05.152Z,26.3
2017-06-03T13:44:04.832Z,26.3
2017-06-03T13:46:05.555Z,26.3
2017-06-03T13:48:05.223Z,26.3
2017-06-03T13:50:04.902Z,26.3
2017-06-03T13:52:05.782Z,26.3
2017-06-03T13:54:05.509Z,26.3
2017-06-03T13:56:05.202Z,26.3
2017-06-03T13:58:10.578Z,26.3
2017-06-03T14:00:06.326Z,26.3
2017-06-03T14:02:05.582Z,26.3
2017-06-03T14:04:05.433Z,26.3
2017-06-03T14:06:07.166Z,26.3
2017-06-03T14:08:07.516Z,26.3
2017-06-03T14:10:05.237Z,26.3
2017-06-03T14:12:09.970Z,26.4
2017-06-03T14:14:04.748Z,26.3
2017-06-03T14:16:05.579Z,26.4
2017-06-03T14:18:04.993Z,26.4
2017-06-03T14:20:05.237Z,26.4
2017-06-03T14:22:05.193Z,26.4
2017-06-03T14:24:07.561Z,26.4
2017-06-03T14:26:05.299Z,26.4
2017-06-03T14:28:05.198Z,26.4
2017-06-03T14:30:05.020Z,26.4
2017-06-03T14:32:05.616Z,26.4
2017-06-03T14:34:05.412Z,26.4
2017-06-03T14:36:05.201Z,26.4
2017-06-03T14:38:04.973Z,26.4
2017-06-03T14:40:07.781Z,26.5
2017-06-03T14:42:04.936Z,26.5
2017-06-03T14:44:07.193Z,26.5
2017-06-03T14:46:05.610Z,26.5
2017-06-03T14:48:05.330Z,26.5
2017-06-03T14:50:05.026Z,26.5
2017-06-03T14:52:05.113Z,26.5
2017-06-03T14:54:04.952Z,26.5
2017-06-03T14:56:04.686Z,26.5
2017-06-03T14:58:05.618Z,26.5
2017-06-03T15:00:07.849Z,26.5
2017-06-03T15:02:05.554Z,26.5
2017-06-03T15:04:04.915Z,26.5
2017-06-03T15:06:05.293Z,26.5
2017-06-03T15:08:05.014Z,26.5
2017-06-03T15:10:04.948Z,26.5
2017-06-03T15:12:04.693Z,26.5
2017-06-03T15:14:05.466Z,26.5
2017-06-03T15:16:07.939Z,26.5
2017-06-03T15:18:04.851Z,26.5
2017-06-03T15:20:05.577Z,26.5
2017-06-03T15:22:04.934Z,26.5
2017-06-03T15:24:05.116Z,26.5
2017-06-03T15:26:04.782Z,26.5
2017-06-03T15:28:05.471Z,26.5
2017-06-03T15:30:05.150Z,26.5
2017-06-03T15:32:05.422Z,26.5
2017-06-03T15:34:05.194Z,26.5
2017-06-03T15:36:05.042Z,26.5
2017-06-03T15:38:04.712Z,26.5
2017-06-03T15:40:05.534Z,26.5
2017-06-03T15:42:05.281Z,26.5
2017-06-03T15:44:05.572Z,26.5
2017-06-03T15:46:05.308Z,26.5
2017-06-03T15:48:05.146Z,26.5
2017-06-03T15:50:04.915Z,26.5
2017-06-03T15:52:05.878Z,26.5
2017-06-03T15:54:04.719Z,26.5
2017-06-03T15:56:05.559Z,26.5
2017-06-03T15:58:05.318Z,26.5
2017-06-03T16:00:04.907Z,26.5
2017-06-03T16:02:05.615Z,26.5
2017-06-03T16:04:04.924Z,26.5
2017-06-03T16:06:10.342Z,26.5
2017-06-03T16:08:05.049Z,26.5
2017-06-03T16:10:09.822Z,26.5
2017-06-03T16:12:05.598Z,26.5
2017-06-03T16:14:06.329Z,26.5
2017-06-03T16:16:05.570Z,26.5
2017-06-03T16:18:05.529Z,26.5
2017-06-03T16:20:04.832Z,26.5
2017-06-03T16:22:05.739Z,26.5
2017-06-03T16:24:05.453Z,26.5
2017-06-03T16:26:05.213Z,26.5
2017-06-03T16:28:05.303Z,26.5
2017-06-03T16:30:05.276Z,26.5
2017-06-03T16:32:10.069Z,26.6
2017-06-03T16:34:08.108Z,26.5
2017-06-03T16:36:04.921Z,26.5
2017-06-03T16:38:04.675Z,26.5
2017-06-03T16:40:05.383Z,26.5
2017-06-03T16:42:07.639Z,26.5
2017-06-03T16:44:05.619Z,26.5
2017-06-03T16:46:05.096Z,26.5
2017-06-03T16:48:04.876Z,26.5
2017-06-03T16:50:05.130Z,26.5
2017-06-03T16:52:05.778Z,26.5
2017-06-03T16:54:05.153Z,26.5
2017-06-03T16:56:04.857Z,26.5
2017-06-03T16:58:07.715Z,26.5
2017-06-03T17:00:07.947Z,26.5
2017-06-03T17:02:04.691Z,26.5
2017-06-03T17:04:05.461Z,26.5
2017-06-03T17:06:04.776Z,26.5
2017-06-03T17:08:05.477Z,26.5
2017-06-03T17:10:05.023Z,26.5
2017-06-03T17:12:04.793Z,26.5
2017-06-03T17:14:05.532Z,26.5
2017-06-03T17:16:05.560Z,26.5
2017-06-03T17:18:05.540Z,26.5
2017-06-03T17:20:05.303Z,26.5
2017-06-03T17:22:05.566Z,26.5
2017-06-03T17:24:05.501Z,26.5
2017-06-03T17:26:05.219Z,26.5
2017-06-03T17:28:05.034Z,26.5
2017-06-03T17:30:07.303Z,26.5
2017-06-03T17:32:05.041Z,26.5
2017-06-03T17:34:04.938Z,26.5
2017-06-03T17:36:04.750Z,26.5
2017-06-03T17:38:05.497Z,26.5
2017-06-03T17:40:05.259Z,26.5
2017-06-03T17:42:10.085Z,26.6
2017-06-03T17:44:04.834Z,26.5
2017-06-03T17:46:10.590Z,26.6
2017-06-03T17:48:06.319Z,26.6
2017-06-03T17:50:07.484Z,26.6
2017-06-03T17:52:06.256Z,26.6
2017-06-03T17:54:05.180Z,26.6
2017-06-03T17:56:05.182Z,26.7
2017-06-03T17:58:05.580Z,26.6
2017-06-03T18:00:05.576Z,26.6
2017-06-03T18:02:06.285Z,26.6
2017-06-03T18:04:05.067Z,26.6
2017-06-03T18:06:04.826Z,26.6
2017-06-03T18:08:10.594Z,26.6
2017-06-03T18:10:05.466Z,26.6
2017-06-03T18:12:05.205Z,26.5
2017-06-03T18:14:05.102Z,26.5
2017-06-03T18:16:04.900Z,26.5
2017-06-03T18:18:04.851Z,26.5
2017-06-03T18:20:05.536Z,26.5
2017-06-03T18:22:05.366Z,26.5
2017-06-03T18:24:05.564Z,26.5
2017-06-03T18:26:09.813Z,26.5
2017-06-03T18:28:05.715Z,26.5
2017-06-03T18:30:05.829Z,26.4
2017-06-03T18:32:05.512Z,26.4
2017-06-03T18:34:05.250Z,26.4
2017-06-03T18:36:05.508Z,26.4
2017-06-03T18:38:05.211Z,26.4
2017-06-03T18:40:05.098Z,26.4
2017-06-03T18:42:04.819Z,26.4
2017-06-03T18:44:05.045Z,26.4
2017-06-03T18:46:04.891Z,26.5
2017-06-03T18:48:13.192Z,26.5
2017-06-03T18:50:04.918Z,26.5
2017-06-03T18:52:04.991Z,26.5
2017-06-03T18:54:04.670Z,26.5
2017-06-03T18:56:07.930Z,26.5
2017-06-03T18:58:04.648Z,26.5
2017-06-03T19:00:05.400Z,26.5
2017-06-03T19:02:05.069Z,26.5
2017-06-03T19:04:04.891Z,26.5
2017-06-03T19:06:08.134Z,26.5
2017-06-03T19:08:04.844Z,26.5
2017-06-03T19:10:05.550Z,26.5
2017-06-03T19:12:05.273Z,26.4
2017-06-03T19:14:07.570Z,26.4
2017-06-03T19:16:07.815Z,26.4
2017-06-03T19:18:07.431Z,26.4
2017-06-03T19:20:07.662Z,26.4
2017-06-03T19:22:05.520Z,26.4
2017-06-03T19:24:07.878Z,26.4
2017-06-03T19:26:05.613Z,26.4
2017-06-03T19:28:05.386Z,26.4
2017-06-03T19:30:04.648Z,26.4
2017-06-03T19:32:05.337Z,26.4
2017-06-03T19:34:05.667Z,26.4
2017-06-03T19:36:05.470Z,26.4
2017-06-03T19:38:07.748Z,26.4
2017-06-03T19:40:07.604Z,26.4
2017-06-03T19:42:05.280Z,26.4
2017-06-03T19:44:05.002Z,26.4
2017-06-03T19:46:04.771Z,26.4
2017-06-03T19:48:04.702Z,26.4
2017-06-03T19:50:05.503Z,26.4
2017-06-03T19:52:05.387Z,26.4
2017-06-03T19:54:05.155Z,26.3
2017-06-03T19:56:10.678Z,26.4
2017-06-03T19:58:05.402Z,26.3
2017-06-03T20:00:05.169Z,26.4
2017-06-03T20:02:09.954Z,26.4
2017-06-03T20:04:10.080Z,26.4
2017-06-03T20:06:05.331Z,26.4
2017-06-03T20:08:05.039Z,26.4
2017-06-03T20:10:05.251Z,26.3
2017-06-03T20:12:04.983Z,26.3
2017-06-03T20:14:04.697Z,26.3
2017-06-03T20:16:05.562Z,26.3
2017-06-03T20:18:04.679Z,26.3
2017-06-03T20:20:05.362Z,26.4
2017-06-03T20:22:05.433Z,26.3
2017-06-03T20:24:04.659Z,26.3
2017-06-03T20:26:05.508Z,26.3
2017-06-03T20:28:05.161Z,26.3
2017-06-03T20:30:04.838Z,26.3
2017-06-03T20:32:05.585Z,26.3
2017-06-03T20:34:05.307Z,26.3
2017-06-03T20:36:04.996Z,26.3
2017-06-03T20:38:04.775Z,26.3
2017-06-03T20:40:05.029Z,26.3
2017-06-03T20:42:04.773Z,26.3
2017-06-03T20:44:08.068Z,26.3
2017-06-03T20:46:05.118Z,26.3
2017-06-03T20:48:04.803Z,26.3
2017-06-03T20:50:05.182Z,26.3
2017-06-03T20:52:05.056Z,26.3
2017-06-03T20:54:07.521Z,26.3
2017-06-03T20:56:05.239Z,26.3
2017-06-03T20:58:04.947Z,26.3
2017-06-03T21:00:07.736Z,26.2
2017-06-03T21:02:05.502Z,26.2
2017-06-03T21:04:05.274Z,26.2
2017-06-03T21:06:04.963Z,26.2
2017-06-03T21:08:04.815Z,26.2
2017-06-03T21:10:05.706Z,26.2
2017-06-03T21:12:05.443Z,26.2
2017-06-03T21:14:07.721Z,26.2
2017-06-03T21:16:05.503Z,26.2
2017-06-03T21:18:05.549Z,26.2
2017-06-03T21:20:05.271Z,26.2
2017-06-03T21:22:05.044Z,26.2
2017-06-03T21:24:04.825Z,26.2
2017-06-03T21:26:08.427Z,26.2
2017-06-03T21:28:05.157Z,26.2
2017-06-03T21:30:07.376Z,26.2
2017-06-03T21:32:05.018Z,26.2
2017-06-03T21:34:04.853Z,26.2
2017-06-03T21:36:05.557Z,26.2
2017-06-03T21:38:05.438Z,26.2
2017-06-03T21:40:04.725Z,26.2
2017-06-03T21:42:05.414Z,26.2
2017-06-03T21:44:05.136Z,26.2
2017-06-03T21:46:04.996Z,26.2
2017-06-03T21:48:04.730Z,26.2
2017-06-03T21:50:05.543Z,26.2
2017-06-03T21:52:07.838Z,26.2
2017-06-03T21:54:05.573Z,26.2
2017-06-03T21:56:05.283Z,26.2
2017-06-03T21:58:08.196Z,26.1
2017-06-03T22:00:04.916Z,26.2
2017-06-03T22:02:04.689Z,26.2
2017-06-03T22:04:05.375Z,26.1
2017-06-03T22:06:07.684Z,26.2
2017-06-03T22:08:05.610Z,26.1
2017-06-03T22:10:04.848Z,26.2
2017-06-03T22:12:05.077Z,26.1
2017-06-03T22:14:04.804Z,26.1
2017-06-03T22:16:05.538Z,26.1
2017-06-03T22:18:05.463Z,26.1
2017-06-03T22:20:05.173Z,26.1
2017-06-03T22:22:05.245Z,26.2
2017-06-03T22:24:05.505Z,26.1
2017-06-03T22:26:04.725Z,26.1
2017-06-03T22:28:05.514Z,26.1
2017-06-03T22:30:05.405Z,26.1
2017-06-03T22:32:07.623Z,26.1
2017-06-03T22:34:05.193Z,26.1
2017-06-03T22:36:09.926Z,26.1
2017-06-03T22:38:05.610Z,26.1
2017-06-03T22:40:05.382Z,26.1
2017-06-03T22:42:05.109Z,26.1
2017-06-03T22:44:09.964Z,26.1
2017-06-03T22:46:04.669Z,26.1
2017-06-03T22:48:04.945Z,26.1
2017-06-03T22:50:04.681Z,26.1
2017-06-03T22:52:05.528Z,26.1
2017-06-03T22:54:05.356Z,26.1
2017-06-03T22:56:05.075Z,26.1
2017-06-03T22:58:04.932Z,26.1
2017-06-03T23:00:07.722Z,26.1
2017-06-03T23:02:08.066Z,26.1
2017-06-03T23:04:05.800Z,26.1
2017-06-03T23:06:05.460Z,26.1
2017-06-03T23:08:05.172Z,26.1
2017-06-03T23:10:07.592Z,26.1
2017-06-03T23:12:04.881Z,26.1
2017-06-03T23:14:05.571Z,26.1
2017-06-03T23:16:10.518Z,26.1
2017-06-03T23:18:08.137Z,26.1
2017-06-03T23:20:04.894Z,26.1
2017-06-03T23:22:05.839Z,26.1
2017-06-03T23:24:05.500Z,26.1
2017-06-03T23:26:10.318Z,26.1
2017-06-03T23:28:05.117Z,26.1
2017-06-03T23:30:04.801Z,26.1
2017-06-03T23:32:05.579Z,26.1
2017-06-03T23:34:12.443Z,26.1
2017-06-03T23:36:07.649Z,26.1
2017-06-03T23:38:04.827Z,26.1
2017-06-03T23:40:05.716Z,26.1
2017-06-03T23:42:05.615Z,26.1
2017-06-03T23:44:05.310Z,26.1
2017-06-03T23:46:07.610Z,26.1
2017-06-03T23:48:10.407Z,26.1
2017-06-03T23:50:12.285Z,26.1
2017-06-03T23:52:04.985Z,26.1
2017-06-03T23:54:07.176Z,26.1
2017-06-03T23:56:07.377Z,26.1
2017-06-03T23:58:05.755Z,26.1
